sensor_id;sensor_type;location;lat;lon;timestamp;temperature;humidity
34542;DHT22;20784;51.332;12.410;2023-01-10T00:02:03;6.00;99.90
34542;DHT22;20784;51.332;12.410;2023-01-10T00:04:47;5.90;99.90
34542;DHT22;20784;51.332;12.410;2023-01-10T00:07:12;5.90;99.90
34542;DHT22;20784;51.332;12.410;2023-01-10T00:09:38;6.00;99.90
34542;DHT22;20784;51.332;12.410;2023-01-10T00:12:06;6.00;99.90
34542;DHT22;20784;51.332;12.410;2023-01-10T00:14:53;6.00;99.90
34542;DHT22;20784;51.332;12.410;2023-01-10T00:17:20;6.00;99.90
34542;DHT22;20784;51.332;12.410;2023-01-10T00:19:49;5.90;99.90
34542;DHT22;20784;51.332;12.410;2023-01-10T00:22:14;6.00;99.90
34542;DHT22;20784;51.332;12.410;2023-01-10T00:24:43;6.00;99.90
34542;DHT22;20784;51.332;12.410;2023-01-10T00:27:08;6.10;99.90
34542;DHT22;20784;51.332;12.410;2023-01-10T00:29:37;6.10;99.90
34542;DHT22;20784;51.332;12.410;2023-01-10T00:32:06;6.20;99.90
34542;DHT22;20784;51.332;12.410;2023-01-10T00:34:31;6.10;99.90
34542;DHT22;20784;51.332;12.410;2023-01-10T00:36:57;6.10;99.90
34542;DHT22;20784;51.332;12.410;2023-01-10T00:39:23;6.10;99.90
34542;DHT22;20784;51.332;12.410;2023-01-10T00:41:51;6.10;99.90
34542;DHT22;20784;51.332;12.410;2023-01-10T00:44:36;6.20;99.90
34542;DHT22;20784;51.332;12.410;2023-01-10T00:47:01;6.20;99.90
34542;DHT22;20784;51.332;12.410;2023-01-10T00:49:27;6.20;99.90
34542;DHT22;20784;51.332;12.410;2023-01-10T00:51:53;6.30;99.90
34542;DHT22;20784;51.332;12.410;2023-01-10T00:54:22;6.30;99.90
34542;DHT22;20784;51.332;12.410;2023-01-10T00:56:48;6.30;99.90
34542;DHT22;20784;51.332;12.410;2023-01-10T00:59:14;6.30;99.90
34542;DHT22;20784;51.332;12.410;2023-01-10T01:01:39;6.40;99.90
34542;DHT22;20784;51.332;12.410;2023-01-10T01:04:05;6.40;99.90
34542;DHT22;20784;51.332;12.410;2023-01-10T01:06:31;6.40;99.90
34542;DHT22;20784;51.332;12.410;2023-01-10T01:09:06;6.50;99.90
34542;DHT22;20784;51.332;12.410;2023-01-10T01:11:31;6.40;99.90
34542;DHT22;20784;51.332;12.410;2023-01-10T01:14:00;6.50;99.90
34542;DHT22;20784;51.332;12.410;2023-01-10T01:16:25;6.50;99.90
34542;DHT22;20784;51.332;12.410;2023-01-10T01:18:51;6.60;99.90
34542;DHT22;20784;51.332;12.410;2023-01-10T01:21:17;6.60;99.90
34542;DHT22;20784;51.332;12.410;2023-01-10T01:23:42;6.60;99.90
34542;DHT22;20784;51.332;12.410;2023-01-10T01:26:08;6.70;99.90
34542;DHT22;20784;51.332;12.410;2023-01-10T01:28:37;6.60;99.90
34542;DHT22;20784;51.332;12.410;2023-01-10T01:31:07;6.60;99.90
34542;DHT22;20784;51.332;12.410;2023-01-10T01:33:33;6.70;99.90
34542;DHT22;20784;51.332;12.410;2023-01-10T01:35:59;6.60;99.90
34542;DHT22;20784;51.332;12.410;2023-01-10T01:38:25;6.60;99.90
34542;DHT22;20784;51.332;12.410;2023-01-10T01:40:53;6.60;99.90
34542;DHT22;20784;51.332;12.410;2023-01-10T01:43:24;6.60;99.90
34542;DHT22;20784;51.332;12.410;2023-01-10T01:45:54;6.60;99.90
34542;DHT22;20784;51.332;12.410;2023-01-10T01:48:41;6.60;99.90
34542;DHT22;20784;51.332;12.410;2023-01-10T01:51:17;6.50;99.90
34542;DHT22;20784;51.332;12.410;2023-01-10T01:53:47;6.50;99.90
34542;DHT22;20784;51.332;12.410;2023-01-10T01:59:03;6.50;99.90
34542;DHT22;20784;51.332;12.410;2023-01-10T02:01:34;6.50;99.90
34542;DHT22;20784;51.332;12.410;2023-01-10T02:04:16;6.50;99.90
34542;DHT22;20784;51.332;12.410;2023-01-10T02:06:45;6.60;99.90
34542;DHT22;20784;51.332;12.410;2023-01-10T02:09:28;6.60;99.90
34542;DHT22;20784;51.332;12.410;2023-01-10T02:12:00;6.60;99.90
34542;DHT22;20784;51.332;12.410;2023-01-10T02:14:34;6.50;99.90
34542;DHT22;20784;51.332;12.410;2023-01-10T02:17:24;6.60;99.90
34542;DHT22;20784;51.332;12.410;2023-01-10T02:19:52;6.60;99.90
34542;DHT22;20784;51.332;12.410;2023-01-10T02:40:13;6.70;99.90
34542;DHT22;20784;51.332;12.410;2023-01-10T02:42:55;6.60;99.90
34542;DHT22;20784;51.332;12.410;2023-01-10T02:45:29;6.50;99.90
34542;DHT22;20784;51.332;12.410;2023-01-10T02:47:58;6.50;99.90
34542;DHT22;20784;51.332;12.410;2023-01-10T02:50:44;6.50;99.90
34542;DHT22;20784;51.332;12.410;2023-01-10T02:53:39;6.50;99.90
34542;DHT22;20784;51.332;12.410;2023-01-10T03:01:56;6.50;99.90
34542;DHT22;20784;51.332;12.410;2023-01-10T03:06:53;6.50;99.90
34542;DHT22;20784;51.332;12.410;2023-01-10T03:09:32;6.50;99.90
34542;DHT22;20784;51.332;12.410;2023-01-10T03:12:11;6.50;99.90
34542;DHT22;20784;51.332;12.410;2023-01-10T03:14:38;6.60;99.90
34542;DHT22;20784;51.332;12.410;2023-01-10T03:17:09;6.60;99.90
34542;DHT22;20784;51.332;12.410;2023-01-10T03:19:43;6.50;99.90
34542;DHT22;20784;51.332;12.410;2023-01-10T03:22:12;6.50;99.90
34542;DHT22;20784;51.332;12.410;2023-01-10T03:24:41;6.50;99.90
34542;DHT22;20784;51.332;12.410;2023-01-10T03:27:20;6.50;99.90
34542;DHT22;20784;51.332;12.410;2023-01-10T03:30:14;6.50;99.90
34542;DHT22;20784;51.332;12.410;2023-01-10T03:33:10;6.50;99.90
34542;DHT22;20784;51.332;12.410;2023-01-10T03:36:25;6.50;99.90
34542;DHT22;20784;51.332;12.410;2023-01-10T03:45:43;6.40;99.90
34542;DHT22;20784;51.332;12.410;2023-01-10T03:48:14;6.40;99.90
34542;DHT22;20784;51.332;12.410;2023-01-10T03:50:43;6.40;99.90
34542;DHT22;20784;51.332;12.410;2023-01-10T03:53:14;6.40;99.90
34542;DHT22;20784;51.332;12.410;2023-01-10T03:55:41;6.40;99.90
34542;DHT22;20784;51.332;12.410;2023-01-10T03:58:07;6.40;99.90
34542;DHT22;20784;51.332;12.410;2023-01-10T04:00:36;6.40;99.90
34542;DHT22;20784;51.332;12.410;2023-01-10T04:03:02;6.40;99.90
34542;DHT22;20784;51.332;12.410;2023-01-10T04:05:27;6.40;99.90
34542;DHT22;20784;51.332;12.410;2023-01-10T04:07:53;6.40;99.90
34542;DHT22;20784;51.332;12.410;2023-01-10T04:10:19;6.40;99.90
34542;DHT22;20784;51.332;12.410;2023-01-10T04:12:45;6.40;99.90
34542;DHT22;20784;51.332;12.410;2023-01-10T04:15:11;6.40;99.90
34542;DHT22;20784;51.332;12.410;2023-01-10T04:17:40;6.40;99.90
34542;DHT22;20784;51.332;12.410;2023-01-10T04:20:10;6.40;99.90
34542;DHT22;20784;51.332;12.410;2023-01-10T04:22:36;6.40;99.90
34542;DHT22;20784;51.332;12.410;2023-01-10T04:25:05;6.40;99.90
34542;DHT22;20784;51.332;12.410;2023-01-10T04:27:31;6.40;99.90
34542;DHT22;20784;51.332;12.410;2023-01-10T04:29:57;6.40;99.90
34542;DHT22;20784;51.332;12.410;2023-01-10T04:32:25;6.40;99.90
34542;DHT22;20784;51.332;12.410;2023-01-10T04:34:51;6.40;99.90
34542;DHT22;20784;51.332;12.410;2023-01-10T04:37:22;6.50;99.90
34542;DHT22;20784;51.332;12.410;2023-01-10T04:39:48;6.30;99.90
34542;DHT22;20784;51.332;12.410;2023-01-10T04:42:21;6.40;99.90
34542;DHT22;20784;51.332;12.410;2023-01-10T04:44:48;6.40;99.90
34542;DHT22;20784;51.332;12.410;2023-01-10T04:47:16;6.40;99.90
34542;DHT22;20784;51.332;12.410;2023-01-10T04:49:42;6.40;99.90
34542;DHT22;20784;51.332;12.410;2023-01-10T04:52:40;6.40;99.90
34542;DHT22;20784;51.332;12.410;2023-01-10T04:55:15;6.50;99.90
34542;DHT22;20784;51.332;12.410;2023-01-10T04:57:54;6.50;99.90
34542;DHT22;20784;51.332;12.410;2023-01-10T05:00:25;6.50;99.90
34542;DHT22;20784;51.332;12.410;2023-01-10T05:02:55;6.60;99.90
34542;DHT22;20784;51.332;12.410;2023-01-10T05:05:24;6.60;99.90
34542;DHT22;20784;51.332;12.410;2023-01-10T05:07:53;6.60;99.90
34542;DHT22;20784;51.332;12.410;2023-01-10T05:10:19;6.60;99.90
34542;DHT22;20784;51.332;12.410;2023-01-10T05:12:48;6.70;99.90
34542;DHT22;20784;51.332;12.410;2023-01-10T05:15:14;6.70;99.90
34542;DHT22;20784;51.332;12.410;2023-01-10T05:17:47;6.70;99.90
34542;DHT22;20784;51.332;12.410;2023-01-10T05:20:22;6.70;99.90
34542;DHT22;20784;51.332;12.410;2023-01-10T05:22:53;6.70;99.90
34542;DHT22;20784;51.332;12.410;2023-01-10T05:25:28;6.80;99.90
34542;DHT22;20784;51.332;12.410;2023-01-10T05:27:58;6.80;99.90
34542;DHT22;20784;51.332;12.410;2023-01-10T05:30:30;6.70;99.90
34542;DHT22;20784;51.332;12.410;2023-01-10T05:33:01;6.80;99.90
34542;DHT22;20784;51.332;12.410;2023-01-10T05:38:30;6.80;99.90
34542;DHT22;20784;51.332;12.410;2023-01-10T05:41:07;6.80;99.90
34542;DHT22;20784;51.332;12.410;2023-01-10T05:46:37;6.80;99.90
34542;DHT22;20784;51.332;12.410;2023-01-10T05:49:03;6.80;99.90
34542;DHT22;20784;51.332;12.410;2023-01-10T05:51:32;6.90;99.90
34542;DHT22;20784;51.332;12.410;2023-01-10T05:54:17;6.80;99.90
34542;DHT22;20784;51.332;12.410;2023-01-10T05:57:20;6.70;99.90
34542;DHT22;20784;51.332;12.410;2023-01-10T06:00:30;6.80;99.90
34542;DHT22;20784;51.332;12.410;2023-01-10T06:03:14;6.70;99.90
34542;DHT22;20784;51.332;12.410;2023-01-10T06:05:45;6.80;99.90
34542;DHT22;20784;51.332;12.410;2023-01-10T06:08:25;6.80;99.90
34542;DHT22;20784;51.332;12.410;2023-01-10T06:10:54;6.70;99.90
34542;DHT22;20784;51.332;12.410;2023-01-10T06:13:42;6.80;99.90
34542;DHT22;20784;51.332;12.410;2023-01-10T06:16:32;6.80;99.90
34542;DHT22;20784;51.332;12.410;2023-01-10T06:19:00;6.80;99.90
34542;DHT22;20784;51.332;12.410;2023-01-10T06:21:32;6.90;99.90
34542;DHT22;20784;51.332;12.410;2023-01-10T06:24:10;6.90;99.90
34542;DHT22;20784;51.332;12.410;2023-01-10T06:26:36;6.90;99.90
34542;DHT22;20784;51.332;12.410;2023-01-10T06:29:02;7.00;99.90
34542;DHT22;20784;51.332;12.410;2023-01-10T06:31:28;6.90;99.90
34542;DHT22;20784;51.332;12.410;2023-01-10T06:33:56;7.10;99.90
34542;DHT22;20784;51.332;12.410;2023-01-10T06:36:22;7.00;99.90
34542;DHT22;20784;51.332;12.410;2023-01-10T06:38:47;7.10;99.90
34542;DHT22;20784;51.332;12.410;2023-01-10T06:41:14;7.10;99.90
34542;DHT22;20784;51.332;12.410;2023-01-10T06:43:44;7.10;99.90
34542;DHT22;20784;51.332;12.410;2023-01-10T06:46:15;7.10;99.90
34542;DHT22;20784;51.332;12.410;2023-01-10T06:48:42;7.10;99.90
34542;DHT22;20784;51.332;12.410;2023-01-10T06:51:10;7.00;99.90
34542;DHT22;20784;51.332;12.410;2023-01-10T06:53:36;7.00;99.90
34542;DHT22;20784;51.332;12.410;2023-01-10T06:56:02;7.10;99.90
34542;DHT22;20784;51.332;12.410;2023-01-10T06:58:30;7.10;99.90
34542;DHT22;20784;51.332;12.410;2023-01-10T07:00:56;7.10;99.90
34542;DHT22;20784;51.332;12.410;2023-01-10T07:03:22;7.10;99.90
34542;DHT22;20784;51.332;12.410;2023-01-10T07:05:48;7.10;99.90
34542;DHT22;20784;51.332;12.410;2023-01-10T07:08:17;7.00;99.90
34542;DHT22;20784;51.332;12.410;2023-01-10T07:10:43;7.10;99.90
34542;DHT22;20784;51.332;12.410;2023-01-10T07:13:11;7.00;99.90
34542;DHT22;20784;51.332;12.410;2023-01-10T07:15:43;7.00;99.90
34542;DHT22;20784;51.332;12.410;2023-01-10T07:18:24;7.10;99.90
34542;DHT22;20784;51.332;12.410;2023-01-10T07:21:03;7.00;99.90
34542;DHT22;20784;51.332;12.410;2023-01-10T07:23:30;7.10;99.90
34542;DHT22;20784;51.332;12.410;2023-01-10T07:26:09;7.10;99.90
34542;DHT22;20784;51.332;12.410;2023-01-10T07:28:36;7.10;99.90
34542;DHT22;20784;51.332;12.410;2023-01-10T07:31:03;7.10;99.90
34542;DHT22;20784;51.332;12.410;2023-01-10T07:33:30;7.10;99.90
34542;DHT22;20784;51.332;12.410;2023-01-10T07:36:00;7.10;99.90
34542;DHT22;20784;51.332;12.410;2023-01-10T07:38:28;7.10;99.90
34542;DHT22;20784;51.332;12.410;2023-01-10T07:40:54;7.10;99.90
34542;DHT22;20784;51.332;12.410;2023-01-10T07:43:22;7.10;99.90
34542;DHT22;20784;51.332;12.410;2023-01-10T07:45:50;7.10;99.90
34542;DHT22;20784;51.332;12.410;2023-01-10T07:48:25;7.10;99.90
34542;DHT22;20784;51.332;12.410;2023-01-10T07:51:03;7.20;99.90
34542;DHT22;20784;51.332;12.410;2023-01-10T07:53:41;7.20;99.90
34542;DHT22;20784;51.332;12.410;2023-01-10T07:56:08;7.20;99.90
34542;DHT22;20784;51.332;12.410;2023-01-10T07:58:33;7.30;99.90
34542;DHT22;20784;51.332;12.410;2023-01-10T08:01:01;7.30;99.90
34542;DHT22;20784;51.332;12.410;2023-01-10T08:03:28;7.30;99.90
34542;DHT22;20784;51.332;12.410;2023-01-10T08:06:02;7.20;99.90
34542;DHT22;20784;51.332;12.410;2023-01-10T08:08:29;7.30;99.90
34542;DHT22;20784;51.332;12.410;2023-01-10T08:10:58;7.20;99.90
34542;DHT22;20784;51.332;12.410;2023-01-10T08:13:24;7.20;99.90
34542;DHT22;20784;51.332;12.410;2023-01-10T08:15:50;7.20;99.90
34542;DHT22;20784;51.332;12.410;2023-01-10T08:18:18;7.20;99.90
34542;DHT22;20784;51.332;12.410;2023-01-10T08:20:44;7.20;99.90
34542;DHT22;20784;51.332;12.410;2023-01-10T08:23:13;7.20;99.90
34542;DHT22;20784;51.332;12.410;2023-01-10T08:25:39;7.30;99.90
34542;DHT22;20784;51.332;12.410;2023-01-10T08:28:05;7.20;99.90
34542;DHT22;20784;51.332;12.410;2023-01-10T08:30:31;7.20;99.90
34542;DHT22;20784;51.332;12.410;2023-01-10T08:33:00;7.20;99.90
34542;DHT22;20784;51.332;12.410;2023-01-10T08:35:35;7.20;99.90
34542;DHT22;20784;51.332;12.410;2023-01-10T08:38:01;7.30;99.90
34542;DHT22;20784;51.332;12.410;2023-01-10T08:40:26;7.30;99.90
34542;DHT22;20784;51.332;12.410;2023-01-10T08:43:11;7.30;99.90
34542;DHT22;20784;51.332;12.410;2023-01-10T08:45:40;7.40;99.90
34542;DHT22;20784;51.332;12.410;2023-01-10T08:48:06;7.40;99.90
34542;DHT22;20784;51.332;12.410;2023-01-10T08:50:34;7.40;99.90
34542;DHT22;20784;51.332;12.410;2023-01-10T08:53:00;7.40;99.90
34542;DHT22;20784;51.332;12.410;2023-01-10T08:55:27;7.40;99.90
34542;DHT22;20784;51.332;12.410;2023-01-10T08:57:53;7.40;99.90
34542;DHT22;20784;51.332;12.410;2023-01-10T09:00:21;7.40;99.90
34542;DHT22;20784;51.332;12.410;2023-01-10T09:02:47;7.40;99.90
34542;DHT22;20784;51.332;12.410;2023-01-10T09:05:24;7.40;99.90
34542;DHT22;20784;51.332;12.410;2023-01-10T09:08:00;7.40;99.90
34542;DHT22;20784;51.332;12.410;2023-01-10T09:10:26;7.40;99.90
34542;DHT22;20784;51.332;12.410;2023-01-10T09:12:57;7.40;99.90
34542;DHT22;20784;51.332;12.410;2023-01-10T09:15:35;7.40;99.90
34542;DHT22;20784;51.332;12.410;2023-01-10T09:18:05;7.60;99.90
34542;DHT22;20784;51.332;12.410;2023-01-10T09:20:40;7.50;99.90
34542;DHT22;20784;51.332;12.410;2023-01-10T09:23:08;7.60;99.90
34542;DHT22;20784;51.332;12.410;2023-01-10T09:25:37;7.60;99.90
34542;DHT22;20784;51.332;12.410;2023-01-10T09:28:06;7.60;99.90
34542;DHT22;20784;51.332;12.410;2023-01-10T09:30:35;7.50;99.90
34542;DHT22;20784;51.332;12.410;2023-01-10T09:33:01;7.70;99.90
34542;DHT22;20784;51.332;12.410;2023-01-10T09:35:28;7.60;99.90
34542;DHT22;20784;51.332;12.410;2023-01-10T09:37:55;7.60;99.90
34542;DHT22;20784;51.332;12.410;2023-01-10T09:49:14;7.60;99.90
34542;DHT22;20784;51.332;12.410;2023-01-10T09:52:20;7.60;99.90
34542;DHT22;20784;51.332;12.410;2023-01-10T09:54:51;7.50;99.90
34542;DHT22;20784;51.332;12.410;2023-01-10T09:57:20;7.50;99.90
34542;DHT22;20784;51.332;12.410;2023-01-10T09:59:53;7.50;99.90
34542;DHT22;20784;51.332;12.410;2023-01-10T10:02:41;7.60;99.90
34542;DHT22;20784;51.332;12.410;2023-01-10T10:05:18;7.60;99.90
34542;DHT22;20784;51.332;12.410;2023-01-10T10:08:10;7.60;99.90
34542;DHT22;20784;51.332;12.410;2023-01-10T10:27:57;7.60;99.90
34542;DHT22;20784;51.332;12.410;2023-01-10T10:31:13;7.50;99.90
34542;DHT22;20784;51.332;12.410;2023-01-10T10:38:37;7.60;99.90
34542;DHT22;20784;51.332;12.410;2023-01-10T10:41:04;7.60;99.90
34542;DHT22;20784;51.332;12.410;2023-01-10T10:43:38;7.60;99.90
34542;DHT22;20784;51.332;12.410;2023-01-10T10:46:25;7.60;99.90
34542;DHT22;20784;51.332;12.410;2023-01-10T10:48:58;7.70;99.90
34542;DHT22;20784;51.332;12.410;2023-01-10T10:51:29;7.70;99.90
34542;DHT22;20784;51.332;12.410;2023-01-10T10:54:04;7.80;99.90
34542;DHT22;20784;51.332;12.410;2023-01-10T10:56:40;7.90;99.90
34542;DHT22;20784;51.332;12.410;2023-01-10T10:59:09;8.00;99.90
34542;DHT22;20784;51.332;12.410;2023-01-10T11:01:41;8.00;99.90
34542;DHT22;20784;51.332;12.410;2023-01-10T11:04:21;7.90;99.90
34542;DHT22;20784;51.332;12.410;2023-01-10T11:06:52;8.00;99.90
34542;DHT22;20784;51.332;12.410;2023-01-10T11:09:26;8.10;99.90
34542;DHT22;20784;51.332;12.410;2023-01-10T11:12:13;8.20;99.90
34542;DHT22;20784;51.332;12.410;2023-01-10T11:14:54;8.30;99.90
34542;DHT22;20784;51.332;12.410;2023-01-10T11:17:23;8.40;99.90
34542;DHT22;20784;51.332;12.410;2023-01-10T11:23:48;8.40;99.90
34542;DHT22;20784;51.332;12.410;2023-01-10T11:26:26;8.30;99.90
34542;DHT22;20784;51.332;12.410;2023-01-10T11:29:25;8.20;99.90
34542;DHT22;20784;51.332;12.410;2023-01-10T11:35:35;9.60;99.90
34542;DHT22;20784;51.332;12.410;2023-01-10T11:38:57;10.10;99.90
34542;DHT22;20784;51.332;12.410;2023-01-10T11:41:44;9.80;99.90
34542;DHT22;20784;51.332;12.410;2023-01-10T11:44:32;9.90;99.90
34542;DHT22;20784;51.332;12.410;2023-01-10T11:47:08;11.00;99.90
34542;DHT22;20784;51.332;12.410;2023-01-10T11:49:38;10.90;99.90
34542;DHT22;20784;51.332;12.410;2023-01-10T11:54:44;10.00;99.90
34542;DHT22;20784;51.332;12.410;2023-01-10T11:57:23;9.80;99.90
34542;DHT22;20784;51.332;12.410;2023-01-10T12:00:08;9.50;99.90
34542;DHT22;20784;51.332;12.410;2023-01-10T12:02:39;9.20;99.90
34542;DHT22;20784;51.332;12.410;2023-01-10T12:05:09;9.00;99.90
34542;DHT22;20784;51.332;12.410;2023-01-10T12:07:59;8.80;99.90
34542;DHT22;20784;51.332;12.410;2023-01-10T12:10:34;8.80;99.90
34542;DHT22;20784;51.332;12.410;2023-01-10T12:13:22;8.70;99.90
34542;DHT22;20784;51.332;12.410;2023-01-10T12:15:51;8.60;99.90
34542;DHT22;20784;51.332;12.410;2023-01-10T12:18:33;8.60;99.90
34542;DHT22;20784;51.332;12.410;2023-01-10T12:22:01;8.50;99.90
34542;DHT22;20784;51.332;12.410;2023-01-10T12:24:48;8.50;99.90
34542;DHT22;20784;51.332;12.410;2023-01-10T12:27:23;8.50;99.90
34542;DHT22;20784;51.332;12.410;2023-01-10T12:30:03;8.40;99.90
34542;DHT22;20784;51.332;12.410;2023-01-10T12:33:09;8.40;99.90
34542;DHT22;20784;51.332;12.410;2023-01-10T12:38:42;8.30;99.90
34542;DHT22;20784;51.332;12.410;2023-01-10T12:45:13;8.20;99.90
34542;DHT22;20784;51.332;12.410;2023-01-10T12:50:45;8.20;99.90
34542;DHT22;20784;51.332;12.410;2023-01-10T12:53:32;8.10;99.90
34542;DHT22;20784;51.332;12.410;2023-01-10T12:56:02;8.10;99.90
34542;DHT22;20784;51.332;12.410;2023-01-10T12:58:52;8.10;99.90
34542;DHT22;20784;51.332;12.410;2023-01-10T13:01:41;8.10;99.90
34542;DHT22;20784;51.332;12.410;2023-01-10T13:04:15;8.10;99.90
34542;DHT22;20784;51.332;12.410;2023-01-10T13:06:49;8.20;99.90
34542;DHT22;20784;51.332;12.410;2023-01-10T13:15:52;8.20;99.90
34542;DHT22;20784;51.332;12.410;2023-01-10T13:22:51;8.20;99.90
34542;DHT22;20784;51.332;12.410;2023-01-10T13:25:30;8.30;99.90
34542;DHT22;20784;51.332;12.410;2023-01-10T13:28:21;8.20;99.90
34542;DHT22;20784;51.332;12.410;2023-01-10T13:31:21;8.30;99.90
34542;DHT22;20784;51.332;12.410;2023-01-10T13:37:03;8.40;99.90
34542;DHT22;20784;51.332;12.410;2023-01-10T13:40:27;8.30;99.90
34542;DHT22;20784;51.332;12.410;2023-01-10T13:52:32;8.30;99.90
34542;DHT22;20784;51.332;12.410;2023-01-10T13:55:29;8.30;99.90
34542;DHT22;20784;51.332;12.410;2023-01-10T14:03:53;8.50;99.90
34542;DHT22;20784;51.332;12.410;2023-01-10T14:09:29;8.50;99.90
34542;DHT22;20784;51.332;12.410;2023-01-10T14:12:01;8.40;99.90
34542;DHT22;20784;51.332;12.410;2023-01-10T14:14:33;8.40;99.90
34542;DHT22;20784;51.332;12.410;2023-01-10T14:17:26;8.40;99.90
34542;DHT22;20784;51.332;12.410;2023-01-10T14:20:04;8.40;99.90
34542;DHT22;20784;51.332;12.410;2023-01-10T14:22:33;8.30;99.90
34542;DHT22;20784;51.332;12.410;2023-01-10T14:25:17;8.30;99.90
34542;DHT22;20784;51.332;12.410;2023-01-10T14:27:46;8.20;99.90
34542;DHT22;20784;51.332;12.410;2023-01-10T14:30:33;8.20;99.90
34542;DHT22;20784;51.332;12.410;2023-01-10T14:33:21;8.10;99.90
34542;DHT22;20784;51.332;12.410;2023-01-10T14:35:53;8.10;99.90
34542;DHT22;20784;51.332;12.410;2023-01-10T14:38:27;8.10;99.90
34542;DHT22;20784;51.332;12.410;2023-01-10T14:41:00;8.10;99.90
34542;DHT22;20784;51.332;12.410;2023-01-10T14:43:44;8.00;99.90
34542;DHT22;20784;51.332;12.410;2023-01-10T14:46:32;8.00;99.90
34542;DHT22;20784;51.332;12.410;2023-01-10T14:55:15;8.10;99.90
34542;DHT22;20784;51.332;12.410;2023-01-10T15:00:31;8.10;99.90
34542;DHT22;20784;51.332;12.410;2023-01-10T15:03:01;8.10;99.90
34542;DHT22;20784;51.332;12.410;2023-01-10T15:05:30;8.10;99.90
34542;DHT22;20784;51.332;12.410;2023-01-10T15:08:21;8.10;99.90
34542;DHT22;20784;51.332;12.410;2023-01-10T15:10:49;8.00;99.90
34542;DHT22;20784;51.332;12.410;2023-01-10T15:13:24;8.10;99.90
34542;DHT22;20784;51.332;12.410;2023-01-10T15:15:52;8.00;99.90
34542;DHT22;20784;51.332;12.410;2023-01-10T15:18:38;8.00;99.90
34542;DHT22;20784;51.332;12.410;2023-01-10T15:21:13;7.80;99.90
34542;DHT22;20784;51.332;12.410;2023-01-10T15:23:51;7.90;99.90
34542;DHT22;20784;51.332;12.410;2023-01-10T15:26:39;7.80;99.90
34542;DHT22;20784;51.332;12.410;2023-01-10T15:29:38;7.90;99.90
34542;DHT22;20784;51.332;12.410;2023-01-10T15:32:25;7.90;99.90
34542;DHT22;20784;51.332;12.410;2023-01-10T15:35:01;7.90;99.90
34542;DHT22;20784;51.332;12.410;2023-01-10T15:37:29;7.90;99.90
34542;DHT22;20784;51.332;12.410;2023-01-10T15:40:44;7.90;99.90
34542;DHT22;20784;51.332;12.410;2023-01-10T15:45:57;7.90;99.90
34542;DHT22;20784;51.332;12.410;2023-01-10T15:51:13;7.90;99.90
34542;DHT22;20784;51.332;12.410;2023-01-10T15:54:09;7.80;99.90
34542;DHT22;20784;51.332;12.410;2023-01-10T15:57:06;7.80;99.90
34542;DHT22;20784;51.332;12.410;2023-01-10T15:59:40;7.80;99.90
34542;DHT22;20784;51.332;12.410;2023-01-10T16:02:31;7.70;99.90
34542;DHT22;20784;51.332;12.410;2023-01-10T16:05:13;7.70;99.90
34542;DHT22;20784;51.332;12.410;2023-01-10T16:07:48;7.60;99.90
34542;DHT22;20784;51.332;12.410;2023-01-10T16:10:23;7.70;99.90
34542;DHT22;20784;51.332;12.410;2023-01-10T16:13:08;7.60;99.90
34542;DHT22;20784;51.332;12.410;2023-01-10T16:15:55;7.60;99.90
34542;DHT22;20784;51.332;12.410;2023-01-10T16:18:23;7.60;99.90
34542;DHT22;20784;51.332;12.410;2023-01-10T16:20:51;7.60;99.90
34542;DHT22;20784;51.332;12.410;2023-01-10T16:23:32;7.50;99.90
34542;DHT22;20784;51.332;12.410;2023-01-10T16:26:03;7.50;99.90
34542;DHT22;20784;51.332;12.410;2023-01-10T16:28:31;7.50;99.90
34542;DHT22;20784;51.332;12.410;2023-01-10T16:31:11;7.40;99.90
34542;DHT22;20784;51.332;12.410;2023-01-10T16:33:39;7.50;99.90
34542;DHT22;20784;51.332;12.410;2023-01-10T16:36:16;7.40;99.90
34542;DHT22;20784;51.332;12.410;2023-01-10T16:38:42;7.30;99.90
34542;DHT22;20784;51.332;12.410;2023-01-10T16:41:10;7.30;99.90
34542;DHT22;20784;51.332;12.410;2023-01-10T16:43:56;7.30;99.90
34542;DHT22;20784;51.332;12.410;2023-01-10T16:46:22;7.20;99.90
34542;DHT22;20784;51.332;12.410;2023-01-10T16:48:48;7.20;99.90
34542;DHT22;20784;51.332;12.410;2023-01-10T16:51:20;7.20;99.90
34542;DHT22;20784;51.332;12.410;2023-01-10T16:53:47;7.20;99.90
34542;DHT22;20784;51.332;12.410;2023-01-10T16:56:23;7.20;99.90
34542;DHT22;20784;51.332;12.410;2023-01-10T16:58:50;7.20;99.90
34542;DHT22;20784;51.332;12.410;2023-01-10T17:01:19;7.20;99.90
34542;DHT22;20784;51.332;12.410;2023-01-10T17:03:46;7.20;99.90
34542;DHT22;20784;51.332;12.410;2023-01-10T17:06:13;7.20;99.90
34542;DHT22;20784;51.332;12.410;2023-01-10T17:08:43;7.20;99.90
34542;DHT22;20784;51.332;12.410;2023-01-10T17:11:14;7.20;99.90
34542;DHT22;20784;51.332;12.410;2023-01-10T17:13:41;7.20;99.90
34542;DHT22;20784;51.332;12.410;2023-01-10T17:16:08;7.10;99.90
34542;DHT22;20784;51.332;12.410;2023-01-10T17:18:37;7.10;99.90
34542;DHT22;20784;51.332;12.410;2023-01-10T17:21:07;7.20;99.90
34542;DHT22;20784;51.332;12.410;2023-01-10T17:23:33;7.20;99.90
34542;DHT22;20784;51.332;12.410;2023-01-10T17:26:01;7.10;99.90
34542;DHT22;20784;51.332;12.410;2023-01-10T17:28:27;7.10;99.90
34542;DHT22;20784;51.332;12.410;2023-01-10T17:30:54;7.20;99.90
34542;DHT22;20784;51.332;12.410;2023-01-10T17:33:19;7.10;99.90
34542;DHT22;20784;51.332;12.410;2023-01-10T17:35:45;7.00;99.90
34542;DHT22;20784;51.332;12.410;2023-01-10T17:38:15;7.10;99.90
34542;DHT22;20784;51.332;12.410;2023-01-10T17:40:54;7.10;99.90
34542;DHT22;20784;51.332;12.410;2023-01-10T17:43:39;7.10;99.90
34542;DHT22;20784;51.332;12.410;2023-01-10T17:46:37;7.10;99.90
34542;DHT22;20784;51.332;12.410;2023-01-10T17:49:28;7.20;99.90
34542;DHT22;20784;51.332;12.410;2023-01-10T17:52:07;7.20;99.90
34542;DHT22;20784;51.332;12.410;2023-01-10T17:54:33;7.10;99.90
34542;DHT22;20784;51.332;12.410;2023-01-10T17:57:00;7.20;99.90
34542;DHT22;20784;51.332;12.410;2023-01-10T17:59:28;7.10;99.90
34542;DHT22;20784;51.332;12.410;2023-01-10T18:01:54;7.10;99.90
34542;DHT22;20784;51.332;12.410;2023-01-10T18:04:22;7.10;99.90
34542;DHT22;20784;51.332;12.410;2023-01-10T18:06:48;7.10;99.90
34542;DHT22;20784;51.332;12.410;2023-01-10T18:09:22;7.00;99.90
34542;DHT22;20784;51.332;12.410;2023-01-10T18:11:48;7.00;99.90
34542;DHT22;20784;51.332;12.410;2023-01-10T18:14:14;7.00;99.90
34542;DHT22;20784;51.332;12.410;2023-01-10T18:16:59;6.90;99.90
34542;DHT22;20784;51.332;12.410;2023-01-10T18:19:24;6.90;99.90
34542;DHT22;20784;51.332;12.410;2023-01-10T18:21:50;6.90;99.90
34542;DHT22;20784;51.332;12.410;2023-01-10T18:24:16;6.80;99.90
34542;DHT22;20784;51.332;12.410;2023-01-10T18:26:41;6.70;99.90
34542;DHT22;20784;51.332;12.410;2023-01-10T18:29:07;6.80;99.90
34542;DHT22;20784;51.332;12.410;2023-01-10T18:31:33;6.70;99.90